Time;durP1;ratioP1;P1;durP2;ratioP2;P2;SDS_P1;SDS_P2;PMS_P1;PMS_P2;Temp;Humidity;BMP_temperature;BMP_pressure;BME280_temperature;BME280_humidity;BME280_pressure;Samples;Min_cycle;Max_cycle;Signal;HPM_P1;HPM_P2
2021/07/18 00:00:18;;;;;;;9.20;8.30;;;20.40;99.90;;;;;;5032067;28;20441;-63
2021/07/18 00:02:43;;;;;;;10.33;8.20;;;20.30;99.90;;;;;;5029577;28;20647;-63
2021/07/18 00:05:09;;;;;;;9.17;8.17;;;20.30;99.90;;;;;;5031562;28;20440;-64
2021/07/18 00:07:35;;;;;;;9.53;7.57;;;20.20;99.90;;;;;;5031048;28;20190;-63
2021/07/18 00:10:00;;;;;;;9.30;7.73;;;20.20;99.90;;;;;;5030695;28;20449;-64
2021/07/18 00:12:26;;;;;;;8.10;7.40;;;20.10;99.90;;;;;;5025133;28;20640;-65
2021/07/18 00:14:52;;;;;;;10.80;6.90;;;20.10;99.90;;;;;;5031350;28;20204;-64
2021/07/18 00:17:17;;;;;;;8.80;7.57;;;20.00;99.90;;;;;;5030972;28;20328;-63
2021/07/18 00:19:43;;;;;;;10.50;8.33;;;19.90;99.90;;;;;;5027340;28;20268;-63
2021/07/18 00:22:08;;;;;;;8.17;7.37;;;19.90;99.90;;;;;;5025891;28;20186;-62
2021/07/18 00:24:34;;;;;;;10.00;8.17;;;19.80;99.90;;;;;;5030211;28;20671;-65
2021/07/18 00:27:00;;;;;;;8.07;7.20;;;19.80;99.90;;;;;;5024776;28;20590;-63
2021/07/18 00:29:25;;;;;;;8.17;7.47;;;19.70;99.90;;;;;;5040557;28;20276;-63
2021/07/18 00:31:52;;;;;;;7.87;7.07;;;19.70;99.90;;;;;;5030176;28;20192;-63
2021/07/18 00:34:17;;;;;;;10.82;7.85;;;19.70;99.90;;;;;;5031750;28;20188;-64
2021/07/18 00:36:44;;;;;;;10.80;7.33;;;19.70;99.90;;;;;;5029371;28;20677;-64
2021/07/18 00:39:10;;;;;;;9.20;8.30;;;19.50;99.90;;;;;;5030612;28;20643;-64
2021/07/18 00:41:35;;;;;;;9.83;7.90;;;19.50;99.90;;;;;;5031492;28;20447;-64
2021/07/18 00:44:01;;;;;;;11.77;7.70;;;19.40;99.90;;;;;;5030719;28;20207;-64
2021/07/18 00:46:26;;;;;;;8.33;7.40;;;19.30;99.90;;;;;;5029441;28;20184;-64
2021/07/18 00:48:52;;;;;;;9.30;7.80;;;19.20;99.90;;;;;;5031128;28;20206;-63
2021/07/18 00:51:18;;;;;;;10.53;7.40;;;19.20;99.90;;;;;;5029260;28;20613;-62
2021/07/18 00:53:43;;;;;;;10.63;8.13;;;19.10;99.90;;;;;;5030874;28;20240;-62
2021/07/18 00:56:10;;;;;;;9.20;7.50;;;19.10;99.90;;;;;;5030674;28;20229;-64
2021/07/18 00:58:36;;;;;;;9.40;7.90;;;19.10;99.90;;;;;;5030768;28;20233;-64
2021/07/18 01:01:02;;;;;;;8.70;7.30;;;19.00;99.90;;;;;;5030477;28;20500;-64
2021/07/18 01:03:28;;;;;;;8.37;7.40;;;18.90;99.90;;;;;;5029105;28;20523;-64
2021/07/18 01:05:55;;;;;;;10.67;7.87;;;18.90;99.90;;;;;;5030309;28;20540;-64
2021/07/18 01:08:21;;;;;;;8.52;7.72;;;18.90;99.90;;;;;;5027996;28;20428;-63
2021/07/18 01:10:47;;;;;;;9.57;8.50;;;18.90;99.90;;;;;;5028859;28;20208;-63
2021/07/18 01:13:13;;;;;;;8.73;7.83;;;18.90;99.90;;;;;;5030870;28;20417;-64
2021/07/18 01:15:39;;;;;;;8.87;7.70;;;18.90;99.90;;;;;;5030659;28;20274;-64
2021/07/18 01:18:06;;;;;;;8.57;7.70;;;18.90;99.90;;;;;;5010556;28;20479;-63
2021/07/18 01:20:33;;;;;;;8.70;7.80;;;18.80;99.90;;;;;;5029795;28;20981;-63
2021/07/18 01:22:59;;;;;;;8.87;7.60;;;18.80;99.90;;;;;;5030593;28;20491;-63
2021/07/18 01:25:24;;;;;;;10.07;7.60;;;18.90;99.90;;;;;;5030207;28;20437;-64
2021/07/18 01:27:50;;;;;;;8.57;7.70;;;18.90;99.90;;;;;;5029487;28;20244;-64
2021/07/18 01:30:16;;;;;;;8.13;7.37;;;18.90;99.90;;;;;;5040965;28;20986;-62
2021/07/18 01:32:42;;;;;;;8.93;8.07;;;18.90;99.90;;;;;;5020602;28;20434;-63
2021/07/18 01:35:08;;;;;;;11.47;8.60;;;18.90;99.90;;;;;;5028619;28;20197;-64
2021/07/18 01:37:34;;;;;;;9.87;8.03;;;18.90;99.90;;;;;;5023934;28;20507;-65
2021/07/18 01:39:59;;;;;;;8.13;7.33;;;19.00;99.90;;;;;;5026676;28;20937;-65
2021/07/18 01:42:25;;;;;;;9.70;7.87;;;19.00;99.90;;;;;;5029618;28;20183;-64
2021/07/18 01:44:51;;;;;;;8.23;7.53;;;19.10;99.90;;;;;;5029828;28;20175;-65
2021/07/18 01:47:17;;;;;;;8.80;7.90;;;19.10;99.90;;;;;;5028576;28;20186;-64
2021/07/18 01:49:43;;;;;;;7.93;7.13;;;19.10;99.90;;;;;;5029663;28;20801;-65
2021/07/18 01:52:09;;;;;;;8.10;7.33;;;19.10;99.90;;;;;;5027963;28;20444;-62
2021/07/18 01:54:35;;;;;;;10.30;7.60;;;19.20;99.90;;;;;;5030155;28;20186;-62
2021/07/18 01:57:18;;;;;;;9.13;6.67;;;19.10;99.90;;;;;;5029462;28;20201;-62
2021/07/18 01:59:45;;;;;;;10.50;7.30;;;19.20;99.90;;;;;;5029851;28;20267;-62
2021/07/18 02:02:11;;;;;;;10.50;6.80;;;19.20;99.90;;;;;;5021490;28;20865;-63
2021/07/18 02:04:37;;;;;;;10.83;7.00;;;19.20;99.90;;;;;;5028791;28;20562;-64
2021/07/18 02:07:04;;;;;;;9.90;6.33;;;19.30;99.90;;;;;;5027800;28;20522;-64
2021/07/18 02:09:30;;;;;;;6.70;5.77;;;19.30;99.90;;;;;;5029637;28;20222;-64
2021/07/18 02:11:55;;;;;;;11.83;6.93;;;19.20;99.90;;;;;;5029124;28;20455;-64
2021/07/18 02:14:22;;;;;;;6.30;5.60;;;19.20;99.90;;;;;;5023859;28;20437;-64
2021/07/18 02:16:49;;;;;;;7.90;5.43;;;19.30;99.90;;;;;;5029015;28;20695;-65
2021/07/18 02:19:16;;;;;;;9.97;5.30;;;19.20;99.90;;;;;;5010497;28;20450;-65
2021/07/18 02:21:42;;;;;;;6.67;5.70;;;19.20;99.90;;;;;;5029387;28;20445;-64
2021/07/18 02:24:08;;;;;;;8.30;5.10;;;19.20;99.90;;;;;;5029585;28;20421;-64
2021/07/18 02:26:34;;;;;;;7.07;5.20;;;19.20;99.90;;;;;;5028224;28;20931;-64
2021/07/18 02:29:00;;;;;;;7.53;5.93;;;19.20;99.90;;;;;;5019240;28;20503;-65
2021/07/18 02:31:27;;;;;;;7.20;5.60;;;19.20;99.90;;;;;;5030856;28;20513;-63
2021/07/18 02:33:53;;;;;;;10.97;5.60;;;19.20;99.90;;;;;;5011329;28;21004;-65
2021/07/18 02:36:18;;;;;;;6.10;5.40;;;19.20;99.90;;;;;;5028922;28;20460;-64
2021/07/18 02:38:44;;;;;;;9.40;5.67;;;19.20;99.90;;;;;;5028634;28;20498;-65
2021/07/18 02:41:11;;;;;;;7.90;5.57;;;19.20;99.90;;;;;;5028151;28;20701;-64
2021/07/18 02:43:37;;;;;;;9.23;5.70;;;19.20;99.90;;;;;;5029091;28;20994;-62
2021/07/18 02:46:03;;;;;;;9.60;5.60;;;19.30;99.90;;;;;;5027401;28;20520;-63
2021/07/18 02:48:28;;;;;;;8.40;5.43;;;19.20;99.90;;;;;;5028711;28;20199;-65
2021/07/18 02:50:54;;;;;;;7.30;5.27;;;19.20;99.90;;;;;;5028917;28;20485;-65
2021/07/18 02:53:19;;;;;;;7.50;5.77;;;19.30;99.90;;;;;;5017945;28;20217;-66
2021/07/18 02:55:45;;;;;;;7.33;5.40;;;19.20;99.90;;;;;;5027448;28;20191;-65
2021/07/18 02:58:10;;;;;;;6.13;4.93;;;19.20;99.90;;;;;;5015631;28;20183;-65
2021/07/18 03:00:36;;;;;;;8.43;5.13;;;19.20;99.90;;;;;;5029082;28;20202;-65
2021/07/18 03:03:02;;;;;;;7.43;5.13;;;19.10;99.90;;;;;;5029474;28;20190;-66
2021/07/18 03:05:27;;;;;;;8.67;5.10;;;19.10;99.90;;;;;;5028123;28;20922;-64
2021/07/18 03:07:53;;;;;;;6.47;4.70;;;19.00;99.90;;;;;;5016038;28;20218;-65
2021/07/18 03:10:19;;;;;;;7.27;5.40;;;19.00;99.90;;;;;;5027768;28;20185;-65
2021/07/18 03:12:45;;;;;;;9.20;5.40;;;19.00;99.90;;;;;;5027622;28;20209;-64
2021/07/18 03:15:13;;;;;;;5.80;5.13;;;18.90;99.90;;;;;;5027568;28;20186;-63
2021/07/18 03:17:39;;;;;;;8.77;5.20;;;18.90;99.90;;;;;;5026822;28;20583;-64
2021/07/18 03:20:08;;;;;;;8.83;4.87;;;18.80;99.90;;;;;;5029000;28;20479;-64
2021/07/18 03:22:33;;;;;;;9.73;5.23;;;18.80;99.90;;;;;;5029076;28;20763;-64
2021/07/18 03:25:00;;;;;;;9.43;4.90;;;18.80;99.90;;;;;;5009673;28;20447;-64
2021/07/18 03:27:25;;;;;;;6.63;5.17;;;18.70;99.90;;;;;;5025809;28;20205;-64
2021/07/18 03:29:51;;;;;;;6.93;5.50;;;18.70;99.90;;;;;;5040551;28;20814;-63
2021/07/18 03:32:17;;;;;;;6.73;4.83;;;18.60;99.90;;;;;;5028056;28;20240;-64
2021/07/18 03:34:43;;;;;;;7.43;5.30;;;18.50;99.90;;;;;;5028123;28;20229;-63
2021/07/18 03:37:09;;;;;;;10.73;6.15;;;18.40;99.90;;;;;;5028197;28;20641;-64
2021/07/18 03:39:34;;;;;;;7.87;4.93;;;18.40;99.90;;;;;;5027981;28;20189;-63
2021/07/18 03:42:00;;;;;;;6.47;5.20;;;18.40;99.90;;;;;;5025904;28;20544;-63
2021/07/18 03:44:25;;;;;;;8.47;5.83;;;18.40;99.90;;;;;;5028620;28;20253;-64
2021/07/18 03:46:51;;;;;;;5.93;5.13;;;18.30;99.90;;;;;;5028590;28;20206;-65
2021/07/18 03:49:16;;;;;;;5.37;4.87;;;18.30;99.90;;;;;;5023511;28;20296;-63
2021/07/18 03:51:42;;;;;;;11.40;5.33;;;18.30;99.90;;;;;;5028898;28;20193;-63
2021/07/18 03:54:08;;;;;;;5.88;5.38;;;18.30;99.90;;;;;;5026768;28;20190;-63
2021/07/18 03:56:34;;;;;;;7.70;4.83;;;18.30;99.90;;;;;;5027750;28;20206;-63
2021/07/18 03:58:59;;;;;;;6.50;5.03;;;18.40;99.90;;;;;;5028573;28;20620;-64
2021/07/18 04:01:25;;;;;;;9.80;5.07;;;18.40;99.90;;;;;;5029456;28;20225;-64
2021/07/18 04:03:50;;;;;;;6.90;5.40;;;18.30;99.90;;;;;;5032037;28;20716;-63
2021/07/18 04:06:17;;;;;;;5.30;4.10;;;18.30;99.90;;;;;;5013985;28;20187;-62
2021/07/18 04:08:43;;;;;;;7.60;4.73;;;18.40;99.90;;;;;;5030431;28;20536;-63
2021/07/18 04:11:10;;;;;;;10.73;5.30;;;18.40;99.90;;;;;;5031281;28;20447;-64
2021/07/18 04:13:36;;;;;;;7.65;4.82;;;18.30;99.90;;;;;;5031876;28;20767;-64
2021/07/18 04:16:02;;;;;;;6.87;4.93;;;18.40;99.90;;;;;;5016166;28;20207;-64
2021/07/18 04:18:28;;;;;;;6.13;5.13;;;18.40;99.90;;;;;;5020604;28;20561;-65
2021/07/18 04:20:53;;;;;;;5.03;4.53;;;18.40;99.90;;;;;;5031254;28;20507;-63
2021/07/18 04:23:19;;;;;;;5.33;4.83;;;18.40;97.40;;;;;;5031949;28;20154;-64
2021/07/18 04:25:46;;;;;;;6.73;4.50;;;18.40;96.90;;;;;;5031310;28;20199;-64
2021/07/18 04:28:12;;;;;;;8.33;4.83;;;18.30;98.20;;;;;;5031438;28;20421;-63
2021/07/18 04:30:38;;;;;;;6.60;4.53;;;18.30;97.30;;;;;;5025494;28;20571;-64
2021/07/18 04:33:04;;;;;;;6.10;4.90;;;18.20;99.90;;;;;;5031637;28;20427;-63
2021/07/18 04:35:29;;;;;;;8.33;5.83;;;18.20;99.90;;;;;;5032000;28;20401;-63
2021/07/18 04:37:55;;;;;;;6.20;4.50;;;18.20;96.40;;;;;;5016161;28;20504;-63
2021/07/18 04:40:20;;;;;;;7.53;4.83;;;18.20;94.50;;;;;;5011145;28;20179;-62
2021/07/18 04:42:46;;;;;;;5.60;5.10;;;18.20;92.90;;;;;;5015924;28;20360;-63
2021/07/18 04:45:12;;;;;;;5.50;5.00;;;18.20;83.10;;;;;;5030439;28;20190;-63
2021/07/18 04:47:48;;;;;;;9.17;5.37;;;18.20;90.10;;;;;;5019413;28;20191;-63
2021/07/18 04:50:15;;;;;;;7.43;4.83;;;18.10;92.90;;;;;;4994139;28;20184;-62
2021/07/18 04:52:41;;;;;;;5.70;5.07;;;18.10;91.50;;;;;;5011492;28;20418;-64
2021/07/18 04:55:09;;;;;;;10.20;6.77;;;18.10;97.80;;;;;;5017306;28;20445;-65
2021/07/18 04:57:35;;;;;;;6.70;4.80;;;18.10;95.90;;;;;;5030655;28;20206;-66
2021/07/18 05:00:02;;;;;;;5.63;5.00;;;18.20;96.60;;;;;;5032412;28;20840;-64
2021/07/18 05:02:27;;;;;;;8.10;5.60;;;18.20;95.70;;;;;;5028233;28;20276;-61
2021/07/18 05:04:54;;;;;;;7.10;5.10;;;18.20;93.40;;;;;;5030336;28;21089;-63
2021/07/18 05:07:19;;;;;;;7.38;4.97;;;18.30;94.90;;;;;;5029152;28;20190;-63
2021/07/18 05:09:45;;;;;;;6.80;4.93;;;18.50;95.70;;;;;;5030851;28;20179;-62
2021/07/18 05:12:10;;;;;;;6.90;5.30;;;18.60;92.80;;;;;;5030189;28;20213;-62
2021/07/18 05:14:36;;;;;;;6.20;5.00;;;18.70;88.20;;;;;;5025741;28;20203;-64
2021/07/18 05:17:02;;;;;;;6.40;4.77;;;18.80;90.20;;;;;;5030031;28;20669;-64
2021/07/18 05:19:27;;;;;;;7.53;4.73;;;18.90;80.40;;;;;;5030456;28;20542;-63
2021/07/18 05:21:57;;;;;;;6.30;5.40;;;19.00;68.90;;;;;;5029255;28;20197;-64
2021/07/18 05:24:26;;;;;;;5.83;4.80;;;19.20;56.20;;;;;;5029677;28;20187;-63
2021/07/18 05:26:52;;;;;;;6.50;4.80;;;19.20;50.50;;;;;;5011730;28;20827;-63
2021/07/18 05:29:18;;;;;;;5.20;4.33;;;19.40;48.00;;;;;;5029907;28;20472;-63
2021/07/18 05:31:45;;;;;;;5.30;4.63;;;19.40;45.90;;;;;;5037547;28;20202;-62
2021/07/18 05:34:10;;;;;;;5.33;4.60;;;19.30;49.30;;;;;;5029604;28;20430;-63
2021/07/18 05:36:37;;;;;;;7.93;4.40;;;19.40;49.80;;;;;;5029466;28;20494;-63
2021/07/18 05:39:04;;;;;;;6.23;4.53;;;19.30;42.20;;;;;;5030476;28;20218;-66
2021/07/18 05:41:30;;;;;;;6.20;4.60;;;19.40;37.50;;;;;;5029871;28;20456;-63
2021/07/18 05:43:55;;;;;;;5.00;4.30;;;19.40;29.50;;;;;;5030034;28;20549;-62
2021/07/18 05:46:21;;;;;;;6.93;4.73;;;19.30;42.80;;;;;;5030339;28;20519;-63
2021/07/18 05:48:47;;;;;;;7.20;4.87;;;19.30;48.60;;;;;;5030076;28;20541;-63
2021/07/18 05:51:13;;;;;;;6.23;5.13;;;19.30;50.00;;;;;;5028337;28;20455;-62
2021/07/18 05:53:38;;;;;;;9.17;5.73;;;19.30;50.80;;;;;;5030140;28;20277;-62
2021/07/18 05:56:05;;;;;;;6.00;4.80;;;19.30;53.40;;;;;;5029953;28;20221;-64
2021/07/18 05:58:30;;;;;;;5.90;4.70;;;19.20;53.30;;;;;;5016299;28;20192;-63
2021/07/18 06:00:56;;;;;;;7.53;4.93;;;19.20;58.40;;;;;;5030360;28;20440;-65
2021/07/18 06:03:21;;;;;;;7.30;4.20;;;19.40;52.10;;;;;;5029959;28;20328;-64
2021/07/18 06:05:47;;;;;;;4.87;4.40;;;19.40;55.40;;;;;;5025318;28;20713;-62
2021/07/18 06:08:12;;;;;;;6.70;5.70;;;19.50;55.90;;;;;;5023856;28;20195;-63
2021/07/18 06:10:38;;;;;;;6.10;4.73;;;19.70;48.60;;;;;;5027637;28;20269;-63
2021/07/18 06:13:03;;;;;;;5.77;5.27;;;19.70;39.10;;;;;;5023038;28;20186;-63
2021/07/18 06:15:29;;;;;;;5.73;4.30;;;19.70;35.50;;;;;;5027401;28;20185;-62
2021/07/18 06:17:55;;;;;;;7.80;5.07;;;19.70;35.30;;;;;;5024152;28;20264;-63
2021/07/18 06:20:20;;;;;;;8.40;4.60;;;19.70;33.50;;;;;;5011495;28;20245;-62
2021/07/18 06:22:46;;;;;;;7.27;5.03;;;19.70;29.30;;;;;;5029266;28;20167;-63
2021/07/18 06:25:13;;;;;;;5.63;5.00;;;19.80;28.30;;;;;;5029387;28;20263;-63
2021/07/18 06:27:41;;;;;;;5.20;4.60;;;19.90;28.10;;;;;;5027821;28;20542;-63
2021/07/18 06:30:08;;;;;;;7.20;4.60;;;19.80;29.60;;;;;;5030520;28;20423;-62
2021/07/18 06:32:34;;;;;;;5.60;4.80;;;19.90;32.20;;;;;;5049520;28;20860;-63
2021/07/18 06:34:59;;;;;;;6.70;4.93;;;19.80;42.10;;;;;;5045997;28;20421;-63
2021/07/18 06:37:25;;;;;;;5.47;4.97;;;20.00;36.80;;;;;;5020371;28;20271;-63
2021/07/18 06:39:50;;;;;;;5.30;4.80;;;20.10;36.20;;;;;;5019886;28;21193;-62
2021/07/18 06:42:16;;;;;;;7.90;4.60;;;20.10;40.10;;;;;;5016684;28;20195;-63
2021/07/18 06:44:42;;;;;;;5.67;4.50;;;20.20;34.20;;;;;;5001564;28;20827;-63
2021/07/18 06:47:07;;;;;;;6.50;5.90;;;20.20;26.10;;;;;;5002790;28;20194;-63
2021/07/18 06:49:33;;;;;;;6.43;4.73;;;20.40;19.30;;;;;;5013316;28;20198;-64
2021/07/18 06:51:58;;;;;;;6.83;4.93;;;20.40;22.30;;;;;;5006764;28;20191;-65
2021/07/18 06:54:24;;;;;;;7.97;4.57;;;20.50;22.00;;;;;;5002522;28;20701;-63
2021/07/18 06:56:50;;;;;;;5.70;5.20;;;20.40;19.50;;;;;;5021983;28;20642;-63
2021/07/18 06:59:16;;;;;;;6.07;5.20;;;20.40;23.30;;;;;;5028324;28;20269;-63
2021/07/18 07:01:41;;;;;;;7.20;4.73;;;20.40;29.20;;;;;;5022217;28;20209;-63
2021/07/18 07:04:07;;;;;;;8.90;5.90;;;20.50;29.60;;;;;;5028160;28;20467;-65
2021/07/18 07:06:33;;;;;;;6.00;5.40;;;20.70;15.50;;;;;;5026673;28;20182;-64
2021/07/18 07:08:59;;;;;;;5.27;4.77;;;20.80;5.70;;;;;;5028841;28;20456;-62
2021/07/18 07:11:24;;;;;;;5.83;4.60;;;20.90;8.70;;;;;;5026606;28;20205;-64
2021/07/18 07:13:50;;;;;;;6.17;5.20;;;21.00;2.70;;;;;;5023848;28;20197;-64
2021/07/18 07:16:16;;;;;;;5.00;4.43;;;21.00;1.00;;;;;;5028710;28;20233;-64
2021/07/18 07:18:43;;;;;;;5.27;4.77;;;21.10;6.50;;;;;;5022130;28;20227;-64
2021/07/18 07:21:09;;;;;;;5.50;5.00;;;21.30;1.30;;;;;;5028177;28;20437;-73
2021/07/18 07:23:37;;;;;;;6.90;4.70;;;21.50;1.00;;;;;;5028525;28;20539;-62
2021/07/18 07:26:03;;;;;;;6.60;5.00;;;21.50;1.00;;;;;;5020552;28;20425;-63
2021/07/18 07:28:29;;;;;;;6.17;4.53;;;21.60;1.00;;;;;;5025127;28;20935;-63
2021/07/18 07:30:54;;;;;;;4.90;4.50;;;21.70;1.00;;;;;;5029662;28;20449;-64
2021/07/18 07:33:20;;;;;;;6.50;4.93;;;21.80;1.00;;;;;;5028879;28;20413;-65
2021/07/18 07:35:46;;;;;;;6.07;5.10;;;22.00;1.00;;;;;;5028570;28;20269;-66
2021/07/18 07:38:12;;;;;;;5.30;4.90;;;22.10;1.00;;;;;;5023745;28;20203;-66
2021/07/18 07:40:38;;;;;;;5.27;4.77;;;22.20;1.00;;;;;;5031392;28;20950;-64
2021/07/18 07:43:04;;;;;;;6.50;4.90;;;22.10;1.00;;;;;;5031620;28;20460;-63
2021/07/18 07:45:30;;;;;;;5.87;4.90;;;22.10;1.00;;;;;;5032354;28;20175;-65
2021/07/18 07:47:56;;;;;;;6.67;4.90;;;22.30;1.00;;;;;;5027626;28;20451;-63
2021/07/18 07:50:21;;;;;;;5.30;4.67;;;22.40;1.00;;;;;;5032124;28;20197;-64
2021/07/18 07:52:47;;;;;;;6.20;4.83;;;22.60;1.00;;;;;;5032019;28;20810;-65
2021/07/18 07:55:13;;;;;;;5.50;4.77;;;22.70;1.00;;;;;;5026535;28;20205;-65
2021/07/18 07:57:38;;;;;;;6.63;4.63;;;22.90;1.00;;;;;;5029856;28;20253;-65
2021/07/18 08:00:14;;;;;;;5.13;4.70;;;22.90;1.00;;;;;;5024302;28;20213;-67
2021/07/18 08:02:39;;;;;;;6.85;4.78;;;23.00;1.00;;;;;;5031814;28;20246;-65
2021/07/18 08:05:06;;;;;;;5.07;4.67;;;23.00;1.00;;;;;;5032037;28;20190;-65
2021/07/18 08:07:32;;;;;;;6.45;4.40;;;23.20;1.00;;;;;;5010714;28;20651;-65
2021/07/18 08:09:58;;;;;;;5.00;4.50;;;23.30;1.00;;;;;;5030941;28;20432;-64
2021/07/18 08:12:23;;;;;;;6.90;5.10;;;23.60;1.00;;;;;;5026364;28;20187;-66
2021/07/18 08:14:50;;;;;;;5.80;5.27;;;23.70;1.00;;;;;;5030326;28;20227;-66
2021/07/18 08:17:17;;;;;;;7.40;6.00;;;23.80;1.00;;;;;;5030505;28;20230;-60
2021/07/18 08:19:43;;;;;;;4.97;4.60;;;23.80;1.00;;;;;;5027565;28;20434;-65
2021/07/18 08:22:09;;;;;;;5.80;4.80;;;23.80;1.00;;;;;;5031077;28;20414;-63
2021/07/18 08:24:35;;;;;;;4.90;4.50;;;24.00;1.00;;;;;;5028631;28;20273;-65
2021/07/18 08:27:02;;;;;;;5.37;4.83;;;24.10;1.00;;;;;;5031385;28;20575;-66
2021/07/18 08:29:28;;;;;;;6.30;4.70;;;24.00;1.00;;;;;;5026632;28;20477;-66
2021/07/18 08:32:00;;;;;;;5.60;5.10;;;23.90;1.00;;;;;;5023777;28;20877;-64
2021/07/18 08:34:26;;;;;;;7.72;5.10;;;24.00;1.00;;;;;;5030704;28;20197;-64
2021/07/18 08:36:52;;;;;;;5.83;5.33;;;24.10;1.00;;;;;;5030004;28;20756;-63
2021/07/18 08:39:18;;;;;;;6.10;5.30;;;24.20;99.90;;;;;;5029062;28;20543;-70
2021/07/18 08:41:44;;;;;;;5.23;4.80;;;24.20;1.00;;;;;;5030052;28;20193;-64
2021/07/18 08:44:12;;;;;;;6.50;4.87;;;24.30;1.00;;;;;;5030865;28;20213;-63
2021/07/18 08:46:38;;;;;;;7.07;5.27;;;24.40;99.90;;;;;;5008473;28;20803;-63
2021/07/18 08:49:08;;;;;;;5.40;4.80;;;24.40;99.90;;;;;;5030890;28;20871;-62
2021/07/18 08:51:34;;;;;;;6.33;5.43;;;24.50;1.00;;;;;;5031069;28;20429;-63
2021/07/18 08:54:00;;;;;;;5.07;4.63;;;24.50;99.90;;;;;;5027619;28;20808;-65
2021/07/18 08:56:28;;;;;;;5.27;4.87;;;24.80;1.00;;;;;;5029483;28;20464;-64
2021/07/18 08:58:54;;;;;;;6.60;4.50;;;24.90;99.90;;;;;;5030722;28;20987;-63
2021/07/18 09:01:19;;;;;;;7.10;4.80;;;24.80;99.90;;;;;;5029595;28;20520;-65
2021/07/18 09:03:46;;;;;;;5.50;4.97;;;24.90;99.90;;;;;;5013615;28;20679;-64
2021/07/18 09:06:12;;;;;;;5.30;4.87;;;25.10;99.90;;;;;;5031052;28;20182;-66
2021/07/18 09:08:44;;;;;;;5.97;4.60;;;25.20;99.90;;;;;;5030887;28;20464;-61
2021/07/18 09:11:24;;;;;;;4.63;4.18;;;25.20;1.00;;;;;;5029300;28;20642;-63
2021/07/18 09:14:05;;;;;;;4.57;4.17;;;25.10;1.00;;;;;;5026010;28;20560;-65
2021/07/18 09:16:37;;;;;;;4.83;4.43;;;25.10;1.00;;;;;;5030365;28;20461;-64
2021/07/18 09:19:26;;;;;;;4.97;4.47;;;25.40;1.00;;;;;;5029850;28;20445;-61
2021/07/18 09:21:57;;;;;;;4.90;4.35;;;25.90;1.00;;;;;;5026804;28;20927;-62
2021/07/18 09:24:25;;;;;;;4.77;4.40;;;26.40;1.00;;;;;;5030513;28;20186;-62
2021/07/18 09:27:04;;;;;;;5.63;4.00;;;26.80;1.00;;;;;;5028332;28;20437;-60
2021/07/18 09:29:29;;;;;;;4.43;4.13;;;26.80;1.00;;;;;;5026712;28;20436;-62
2021/07/18 09:32:09;;;;;;;3.90;3.60;;;27.20;99.90;;;;;;5035853;28;20772;-61
2021/07/18 09:34:41;;;;;;;4.50;3.77;;;27.70;99.90;;;;;;5026026;28;20186;-61
2021/07/18 09:37:12;;;;;;;4.60;4.30;;;28.20;1.00;;;;;;5029213;28;20547;-64
2021/07/18 09:39:40;;;;;;;4.43;4.10;;;28.20;1.00;;;;;;5026429;28;23131;-64
2021/07/18 09:42:06;;;;;;;4.43;4.00;;;28.20;99.90;;;;;;5029861;28;20424;-62
2021/07/18 09:44:45;;;;;;;4.00;3.70;;;28.70;1.00;;;;;;5027922;28;20437;-60
2021/07/18 09:47:12;;;;;;;5.40;3.77;;;28.60;99.90;;;;;;5030195;28;20424;-65
2021/07/18 09:49:38;;;;;;;4.10;3.80;;;28.40;99.90;;;;;;5029771;28;20427;-66
2021/07/18 09:52:18;;;;;;;4.27;4.07;;;29.00;71.40;;;;;;5029993;28;20916;-66
2021/07/18 09:54:49;;;;;;;5.40;4.73;;;29.60;99.90;;;;;;5028374;28;20939;-64
2021/07/18 09:57:33;;;;;;;4.50;4.10;;;30.00;1.00;;;;;;5028964;28;20515;-63
2021/07/18 10:00:00;;;;;;;4.50;4.10;;;29.80;99.90;;;;;;5025188;28;20913;-62
2021/07/18 10:02:29;;;;;;;4.47;4.17;;;29.90;99.90;;;;;;5029113;28;20440;-67
2021/07/18 10:04:55;;;;;;;4.90;4.40;;;30.20;1.00;;;;;;5025366;28;20445;-67
2021/07/18 10:07:22;;;;;;;4.83;4.37;;;30.50;1.00;;;;;;5029641;28;20417;-67
2021/07/18 10:09:50;;;;;;;5.97;4.33;;;30.20;1.00;;;;;;5028266;28;20536;-67
2021/07/18 10:12:16;;;;;;;4.50;4.13;;;29.40;1.00;;;;;;5029459;28;20563;-68
2021/07/18 10:14:42;;;;;;;4.50;4.10;;;29.20;99.90;;;;;;5028978;28;21019;-68
2021/07/18 10:17:10;;;;;;;4.70;4.00;;;29.20;99.90;;;;;;5025308;28;20492;-67
2021/07/18 10:19:35;;;;;;;4.57;4.27;;;29.80;80.00;;;;;;5028847;28;20448;-68
2021/07/18 10:22:01;;;;;;;4.10;3.70;;;30.60;1.00;;;;;;5029709;28;20468;-67
2021/07/18 10:24:28;;;;;;;4.30;4.00;;;31.50;1.00;;;;;;5025083;28;20241;-65
2021/07/18 10:26:57;;;;;;;5.30;4.20;;;31.90;1.00;;;;;;5028583;28;20198;-72
2021/07/18 10:29:24;;;;;;;4.30;4.00;;;31.80;1.00;;;;;;5024923;28;20433;-62
2021/07/18 10:31:50;;;;;;;5.00;4.60;;;31.70;1.00;;;;;;5030091;28;20528;-63
2021/07/18 10:34:17;;;;;;;4.27;3.97;;;30.80;1.00;;;;;;5029271;28;20525;-65
2021/07/18 10:36:44;;;;;;;3.90;3.63;;;30.30;1.00;;;;;;5027511;28;20465;-61
2021/07/18 10:39:28;;;;;;;7.03;4.07;;;30.60;1.00;;;;;;5017694;28;20533;-66
2021/07/18 10:41:55;;;;;;;4.40;4.00;;;31.20;1.00;;;;;;5024905;28;20494;-66
2021/07/18 10:44:20;;;;;;;4.77;4.37;;;31.40;1.00;;;;;;5028352;28;20425;-63
2021/07/18 10:46:46;;;;;;;4.40;4.10;;;31.20;1.00;;;;;;5028148;28;20456;-63
2021/07/18 10:49:14;;;;;;;5.17;4.80;;;31.40;1.00;;;;;;5022437;28;20261;-64
2021/07/18 10:51:50;;;;;;;4.77;4.03;;;31.90;1.00;;;;;;5028863;28;20620;-66
2021/07/18 10:54:21;;;;;;;4.30;4.00;;;32.40;1.00;;;;;;5027921;28;20429;-65
2021/07/18 10:56:52;;;;;;;4.90;4.60;;;32.60;1.00;;;;;;5027801;28;20457;-65
2021/07/18 10:59:35;;;;;;;5.50;5.10;;;32.40;99.90;;;;;;5026163;28;20780;-65
2021/07/18 11:02:05;;;;;;;5.00;4.60;;;31.80;99.90;;;;;;5017929;28;20424;-63
2021/07/18 11:04:44;;;;;;;5.37;4.97;;;30.90;1.00;;;;;;5027920;28;20414;-63
2021/07/18 11:07:21;;;;;;;4.73;4.47;;;30.80;1.00;;;;;;5025999;28;20516;-64
2021/07/18 11:09:48;;;;;;;4.73;4.43;;;31.50;1.00;;;;;;5027325;28;20413;-64
2021/07/18 11:12:28;;;;;;;4.90;4.50;;;32.40;1.00;;;;;;5031765;28;20413;-64
2021/07/18 11:15:20;;;;;;;4.10;3.90;;;32.80;99.90;;;;;;5009253;28;20507;-64
2021/07/18 11:18:22;;;;;;;5.17;4.87;;;32.40;99.90;;;;;;5029066;28;21449;-65
2021/07/18 11:20:48;;;;;;;5.90;4.80;;;32.00;99.90;;;;;;5029476;28;20432;-66
2021/07/18 11:23:39;;;;;;;4.47;4.17;;;31.50;99.90;;;;;;5026401;28;20923;-64
2021/07/18 11:26:04;;;;;;;4.80;4.50;;;31.70;99.90;;;;;;5032296;28;20355;-64
2021/07/18 11:28:30;;;;;;;5.15;4.75;;;31.80;99.90;;;;;;5028225;28;20434;-66
2021/07/18 11:31:14;;;;;;;5.23;4.83;;;31.90;99.90;;;;;;5035130;28;20179;-65
2021/07/18 11:33:52;;;;;;;5.00;4.67;;;32.30;99.90;;;;;;5030789;28;20425;-64
2021/07/18 11:36:32;;;;;;;4.53;4.13;;;32.80;99.90;;;;;;5029336;28;20436;-63
2021/07/18 11:39:13;;;;;;;4.90;4.60;;;33.00;99.90;;;;;;5032512;28;20421;-64
2021/07/18 11:41:39;;;;;;;4.73;4.43;;;32.50;99.90;;;;;;5021648;28;20432;-61
2021/07/18 11:44:06;;;;;;;5.10;4.70;;;32.00;99.90;;;;;;5013384;28;20424;-66
2021/07/18 11:46:37;;;;;;;5.10;4.80;;;32.30;99.90;;;;;;5030402;28;20457;-66
2021/07/18 11:49:04;;;;;;;5.23;4.73;;;32.90;99.90;;;;;;5030478;28;20436;-65
2021/07/18 11:51:34;;;;;;;5.37;4.87;;;33.10;99.90;;;;;;5029730;28;20441;-65
2021/07/18 11:54:00;;;;;;;4.80;4.53;;;32.70;99.90;;;;;;5030385;28;20994;-65
2021/07/18 11:56:32;;;;;;;5.60;4.30;;;32.70;99.90;;;;;;5031140;28;20957;-65
2021/07/18 11:59:07;;;;;;;4.97;4.63;;;32.80;99.90;;;;;;5028965;28;20444;-65
2021/07/18 12:01:34;;;;;;;5.40;5.00;;;33.10;99.90;;;;;;5028944;28;20531;-63
2021/07/18 12:04:00;;;;;;;5.37;4.87;;;33.10;99.90;;;;;;5029860;28;20441;-66
2021/07/18 12:06:28;;;;;;;5.20;4.90;;;33.00;99.90;;;;;;5027612;28;20445;-64
2021/07/18 12:09:29;;;;;;;4.70;4.40;;;32.50;99.90;;;;;;5031530;28;20413;-62
2021/07/18 12:12:00;;;;;;;5.87;5.47;;;32.20;99.90;;;;;;5020496;28;20440;-64
2021/07/18 12:14:32;;;;;;;5.57;5.17;;;32.40;99.90;;;;;;5030848;28;20428;-65
2021/07/18 12:16:58;;;;;;;4.87;4.50;;;32.90;99.90;;;;;;5024475;28;20490;-62
2021/07/18 12:19:26;;;;;;;5.70;5.20;;;33.40;99.90;;;;;;5023154;28;20413;-65
2021/07/18 12:21:52;;;;;;;4.67;4.47;;;33.50;99.90;;;;;;5030265;28;20452;-66
2021/07/18 12:24:23;;;;;;;5.20;4.90;;;33.60;99.90;;;;;;5029042;28;20476;-65
2021/07/18 12:26:52;;;;;;;4.60;4.30;;;34.00;99.90;;;;;;5029674;28;20926;-65
2021/07/18 12:29:18;;;;;;;5.17;4.77;;;33.60;99.90;;;;;;5030540;28;20429;-66
2021/07/18 12:31:47;;;;;;;4.87;4.57;;;33.40;99.90;;;;;;5026203;28;20464;-63
2021/07/18 12:34:13;;;;;;;5.27;4.87;;;33.30;99.90;;;;;;5031225;28;20466;-61
2021/07/18 12:37:03;;;;;;;4.43;4.23;;;33.60;99.90;;;;;;5027751;28;20485;-64
2021/07/18 12:39:44;;;;;;;4.70;4.40;;;33.70;99.90;;;;;;5030806;28;20532;-65
2021/07/18 12:42:13;;;;;;;5.67;5.17;;;33.30;99.90;;;;;;5030492;28;20433;-64
2021/07/18 12:44:52;;;;;;;4.77;4.40;;;33.70;99.90;;;;;;5028375;28;20449;-64
2021/07/18 12:47:19;;;;;;;5.20;4.73;;;33.90;99.90;;;;;;5030801;28;20433;-64
2021/07/18 12:49:44;;;;;;;5.37;5.07;;;33.70;99.90;;;;;;5012833;28;20512;-65